Time;durP1;ratioP1;P1;durP2;ratioP2;P2;SDS_P1;SDS_P2;PMS_P1;PMS_P2;Temp;Humidity;BMP_temperature;BMP_pressure;BME280_temperature;BME280_humidity;BME280_pressure;Samples;Min_cycle;Max_cycle;Signal;HPM_P1;HPM_P2
2023/06/25 00:02:05;;;;;;;12.15;9.05;;;19.20;99.90;;;;;;5072427;28;20032;-85
2023/06/25 00:04:31;;;;;;;10.95;8.75;;;19.10;99.90;;;;;;5055928;28;20131;-85
2023/06/25 00:06:57;;;;;;;10.45;8.85;;;19.10;99.90;;;;;;5073189;28;20044;-85
2023/06/25 00:09:22;;;;;;;11.98;9.23;;;19.00;99.90;;;;;;5073447;28;20040;-85
2023/06/25 00:11:48;;;;;;;11.80;9.50;;;19.00;99.90;;;;;;5072977;28;20568;-85
2023/06/25 00:14:14;;;;;;;11.15;9.20;;;19.00;99.90;;;;;;5073775;28;20107;-85
2023/06/25 00:16:39;;;;;;;13.88;10.35;;;19.00;99.90;;;;;;5073206;28;20465;-85
2023/06/25 00:19:05;;;;;;;11.88;9.93;;;19.00;99.90;;;;;;5072775;28;20032;-85
2023/06/25 00:21:30;;;;;;;12.57;10.52;;;19.00;99.90;;;;;;5072906;28;20082;-84
2023/06/25 00:23:56;;;;;;;14.05;10.88;;;19.00;99.90;;;;;;5073327;28;20517;-84
2023/06/25 00:26:21;;;;;;;16.27;10.55;;;18.90;99.90;;;;;;5056984;28;20129;-84
2023/06/25 00:28:47;;;;;;;14.00;10.88;;;19.00;99.90;;;;;;5056495;28;20505;-85
2023/06/25 00:31:12;;;;;;;13.32;10.05;;;19.00;99.90;;;;;;5072606;28;20044;-85
2023/06/25 00:33:41;;;;;;;12.75;10.70;;;19.00;99.90;;;;;;5072941;28;20105;-85
2023/06/25 00:36:06;;;;;;;13.45;11.80;;;18.90;99.90;;;;;;5073050;28;20127;-84
2023/06/25 00:38:34;;;;;;;14.18;10.98;;;18.90;99.90;;;;;;5072923;28;20124;-85
2023/06/25 00:41:00;;;;;;;13.45;11.15;;;18.90;99.90;;;;;;5072450;28;20037;-85
2023/06/25 00:43:25;;;;;;;15.27;11.50;;;18.90;99.90;;;;;;5072925;28;20486;-84
2023/06/25 00:45:51;;;;;;;14.25;11.50;;;18.90;99.90;;;;;;5072928;28;20510;-85
2023/06/25 00:48:17;;;;;;;13.68;10.93;;;18.90;99.90;;;;;;5056053;28;20052;-84
2023/06/25 00:50:43;;;;;;;14.43;11.15;;;18.90;99.90;;;;;;5072449;28;20120;-85
2023/06/25 00:53:09;;;;;;;13.68;10.82;;;18.90;99.90;;;;;;5072684;28;20039;-84
2023/06/25 00:55:34;;;;;;;14.48;11.75;;;18.90;99.90;;;;;;5055963;28;20128;-85
2023/06/25 00:58:00;;;;;;;12.82;10.60;;;18.90;99.90;;;;;;5055779;28;20123;-84
2023/06/25 01:00:28;;;;;;;14.43;10.88;;;18.90;99.90;;;;;;5073307;28;20036;-85
2023/06/25 01:03:04;;;;;;;18.75;12.18;;;18.90;99.90;;;;;;5072039;28;20076;-85
2023/06/25 01:05:43;;;;;;;13.63;11.65;;;18.80;99.90;;;;;;5055953;28;20048;-84
2023/06/25 01:08:10;;;;;;;14.60;11.88;;;18.80;99.90;;;;;;5072357;28;20044;-84
2023/06/25 01:10:37;;;;;;;13.13;11.15;;;18.80;99.90;;;;;;5071154;28;20036;-84
2023/06/25 01:13:02;;;;;;;16.02;11.93;;;18.80;99.90;;;;;;5055369;28;20036;-84
2023/06/25 01:15:28;;;;;;;13.80;12.10;;;18.80;99.90;;;;;;5072336;28;20131;-85
2023/06/25 01:17:54;;;;;;;14.70;12.30;;;18.80;99.90;;;;;;5072080;28;20033;-84
2023/06/25 01:20:21;;;;;;;13.63;12.18;;;18.80;99.90;;;;;;5071616;28;20037;-85
2023/06/25 01:22:48;;;;;;;15.40;12.75;;;18.80;99.90;;;;;;5071943;28;20101;-85
2023/06/25 01:25:14;;;;;;;15.15;12.60;;;18.80;99.90;;;;;;5055506;28;20044;-85
2023/06/25 01:27:40;;;;;;;14.68;12.25;;;18.80;99.90;;;;;;5071934;28;20051;-85
2023/06/25 01:30:06;;;;;;;15.20;12.35;;;18.80;99.90;;;;;;5071744;28;20037;-85
2023/06/25 01:32:32;;;;;;;15.18;12.73;;;18.80;99.90;;;;;;5072040;28;20072;-85
2023/06/25 01:34:57;;;;;;;14.75;12.43;;;18.80;99.90;;;;;;5071838;28;20117;-84
2023/06/25 01:37:23;;;;;;;14.95;12.73;;;18.80;99.90;;;;;;5072115;28;20090;-84
2023/06/25 01:39:51;;;;;;;14.63;12.93;;;18.80;99.90;;;;;;5070894;28;20512;-84
2023/06/25 01:42:17;;;;;;;14.70;12.80;;;18.80;99.90;;;;;;5071460;28;20051;-84
2023/06/25 01:44:43;;;;;;;15.60;13.27;;;18.80;99.90;;;;;;5071940;28;20047;-85
2023/06/25 01:47:08;;;;;;;15.63;13.98;;;18.80;99.90;;;;;;5071772;28;20033;-85
2023/06/25 01:49:34;;;;;;;15.38;13.73;;;18.80;99.90;;;;;;5054522;28;20458;-84
2023/06/25 01:52:01;;;;;;;15.45;13.35;;;18.80;99.90;;;;;;5054867;28;20056;-85
2023/06/25 01:54:27;;;;;;;16.52;13.18;;;18.80;99.90;;;;;;5071578;28;20509;-85
2023/06/25 01:56:53;;;;;;;16.45;13.57;;;18.80;99.90;;;;;;5071571;28;20569;-85
2023/06/25 01:59:18;;;;;;;15.30;12.93;;;18.80;99.90;;;;;;5071286;28;20124;-85
2023/06/25 02:01:44;;;;;;;14.75;12.27;;;18.80;99.90;;;;;;5070716;28;20083;-85
2023/06/25 02:04:09;;;;;;;17.90;12.90;;;18.80;99.90;;;;;;5071173;28;20459;-85
2023/06/25 02:06:35;;;;;;;17.35;11.90;;;18.70;99.90;;;;;;5054923;28;20406;-84
2023/06/25 02:09:01;;;;;;;14.68;11.57;;;18.60;99.90;;;;;;5072537;28;20070;-84
2023/06/25 02:11:26;;;;;;;14.93;11.43;;;18.60;99.90;;;;;;5070712;28;20036;-85
2023/06/25 02:13:52;;;;;;;14.05;11.82;;;18.50;99.90;;;;;;5071298;28;20045;-84
2023/06/25 02:16:18;;;;;;;14.32;12.55;;;18.50;99.90;;;;;;5071210;28;20129;-84
2023/06/25 02:18:44;;;;;;;14.55;12.38;;;18.50;99.90;;;;;;5070684;28;20124;-84
2023/06/25 02:21:09;;;;;;;16.48;12.10;;;18.40;99.90;;;;;;5070329;28;20087;-84
2023/06/25 02:23:35;;;;;;;16.95;12.55;;;18.40;99.90;;;;;;5070377;28;20044;-84
2023/06/25 02:26:01;;;;;;;18.42;13.45;;;18.40;99.90;;;;;;5070768;28;20044;-84
2023/06/25 02:28:26;;;;;;;17.70;13.93;;;18.40;99.90;;;;;;5054270;28;20041;-84
2023/06/25 02:30:52;;;;;;;16.90;14.85;;;18.40;99.90;;;;;;5070477;28;20048;-85
2023/06/25 02:33:18;;;;;;;17.63;15.25;;;18.40;99.90;;;;;;5070721;28;20036;-85
2023/06/25 02:35:43;;;;;;;15.57;13.82;;;18.40;99.90;;;;;;5071034;28;20107;-84
2023/06/25 02:38:09;;;;;;;17.70;14.18;;;18.40;99.90;;;;;;5070790;28;20040;-84
2023/06/25 02:40:35;;;;;;;17.45;14.70;;;18.30;99.90;;;;;;5069773;28;20050;-84
2023/06/25 02:43:01;;;;;;;17.65;15.02;;;18.40;99.90;;;;;;5053516;28;20040;-84
2023/06/25 02:45:26;;;;;;;17.33;15.45;;;18.40;99.90;;;;;;5070678;28;20123;-84
2023/06/25 02:47:52;;;;;;;16.25;13.80;;;18.40;99.90;;;;;;5070547;28;20086;-85
2023/06/25 02:50:18;;;;;;;17.15;14.85;;;18.40;99.90;;;;;;5053569;28;20072;-84
2023/06/25 02:52:44;;;;;;;17.67;15.77;;;18.40;99.90;;;;;;5053970;28;20472;-85
2023/06/25 02:55:10;;;;;;;17.90;16.05;;;18.40;99.90;;;;;;5053594;28;20037;-84
2023/06/25 02:57:36;;;;;;;18.65;16.63;;;18.50;99.90;;;;;;5070368;28;20375;-84
2023/06/25 03:00:04;;;;;;;18.02;15.88;;;18.50;99.90;;;;;;5070013;28;20087;-84
2023/06/25 03:02:30;;;;;;;16.92;15.13;;;18.50;99.90;;;;;;5070163;28;20051;-84
2023/06/25 03:04:56;;;;;;;19.40;15.75;;;18.50;99.90;;;;;;5069997;28;20115;-84
2023/06/25 03:07:22;;;;;;;20.13;17.27;;;18.50;99.90;;;;;;5070245;28;20036;-84
2023/06/25 03:09:47;;;;;;;20.45;16.33;;;18.50;99.90;;;;;;5069702;28;20040;-84
2023/06/25 03:12:13;;;;;;;20.23;17.15;;;18.50;99.90;;;;;;5070123;28;20076;-84
2023/06/25 03:14:39;;;;;;;19.85;16.60;;;18.50;99.90;;;;;;5069825;28;20398;-84
2023/06/25 03:17:05;;;;;;;21.38;16.58;;;18.60;99.90;;;;;;5070222;28;20075;-84
2023/06/25 03:19:32;;;;;;;20.15;16.52;;;18.60;99.90;;;;;;5069781;28;20559;-85
2023/06/25 03:21:57;;;;;;;18.90;16.08;;;18.60;99.90;;;;;;5069439;28;20037;-84
2023/06/25 03:24:23;;;;;;;19.20;16.23;;;18.60;99.90;;;;;;5069498;28;20043;-84
2023/06/25 03:26:49;;;;;;;18.33;16.33;;;18.60;99.90;;;;;;5053215;28;20048;-84
2023/06/25 03:29:15;;;;;;;16.60;14.77;;;18.60;99.90;;;;;;5069784;28;20040;-85
2023/06/25 03:31:40;;;;;;;18.67;15.13;;;18.70;99.90;;;;;;5069213;28;20039;-85
2023/06/25 03:34:06;;;;;;;17.58;15.25;;;18.70;99.90;;;;;;5070096;28;20032;-84
2023/06/25 03:36:32;;;;;;;17.02;15.20;;;18.70;99.90;;;;;;5069519;28;20121;-85
2023/06/25 03:38:58;;;;;;;16.65;14.15;;;18.70;99.90;;;;;;5052007;28;20067;-84
2023/06/25 03:41:24;;;;;;;17.17;14.88;;;18.70;99.90;;;;;;5070295;28;20036;-84
2023/06/25 03:43:50;;;;;;;16.50;14.80;;;18.70;99.90;;;;;;5069449;28;20041;-85
2023/06/25 03:46:16;;;;;;;20.02;15.07;;;18.70;99.90;;;;;;5069667;28;20040;-84
2023/06/25 03:48:44;;;;;;;16.40;14.57;;;18.70;99.90;;;;;;5052982;28;20476;-84
2023/06/25 03:51:11;;;;;;;16.88;15.00;;;18.70;99.90;;;;;;5069561;28;20577;-84
2023/06/25 03:53:40;;;;;;;16.55;14.20;;;18.80;99.90;;;;;;5069406;28;20119;-84
2023/06/25 03:56:06;;;;;;;16.55;14.35;;;18.80;99.90;;;;;;5069831;28;20075;-84
2023/06/25 03:58:33;;;;;;;17.38;13.88;;;18.80;99.90;;;;;;5069736;28;20090;-84
2023/06/25 04:00:58;;;;;;;17.00;14.95;;;18.80;99.90;;;;;;5069190;28;20094;-84
2023/06/25 04:03:25;;;;;;;16.13;14.43;;;18.80;99.90;;;;;;5068707;28;20037;-84
2023/06/25 04:05:51;;;;;;;17.48;14.48;;;18.90;99.90;;;;;;5068474;28;20088;-85
2023/06/25 04:08:16;;;;;;;16.67;14.48;;;18.90;99.90;;;;;;5069833;28;20075;-84
2023/06/25 04:10:42;;;;;;;16.08;14.38;;;18.90;99.90;;;;;;5068954;28;20040;-84
2023/06/25 04:13:08;;;;;;;17.95;14.63;;;18.90;99.90;;;;;;5052373;28;20033;-84
2023/06/25 04:15:34;;;;;;;15.25;13.60;;;18.90;99.90;;;;;;5068836;28;20037;-84
2023/06/25 04:17:59;;;;;;;17.90;15.82;;;18.90;99.90;;;;;;5069482;28;20040;-84
2023/06/25 04:20:27;;;;;;;16.98;14.55;;;19.00;99.90;;;;;;5068199;28;20450;-84
2023/06/25 04:22:53;;;;;;;16.65;14.45;;;19.00;99.90;;;;;;5068858;28;20055;-84
2023/06/25 04:25:19;;;;;;;18.75;15.35;;;19.00;99.90;;;;;;5069284;28;20066;-84
2023/06/25 04:27:44;;;;;;;17.30;14.63;;;19.00;99.90;;;;;;5069115;28;20110;-84
2023/06/25 04:30:11;;;;;;;17.08;14.85;;;19.00;99.90;;;;;;5068861;28;20045;-84
2023/06/25 04:32:36;;;;;;;17.73;15.70;;;19.00;99.90;;;;;;5068888;28;20043;-84
2023/06/25 04:35:02;;;;;;;18.73;15.25;;;19.00;99.90;;;;;;5070467;28;20037;-84
2023/06/25 04:37:28;;;;;;;19.85;16.13;;;19.10;99.90;;;;;;5069203;28;20048;-84
2023/06/25 04:39:53;;;;;;;18.33;14.82;;;19.10;99.90;;;;;;5068805;28;20044;-84
2023/06/25 04:42:19;;;;;;;17.25;14.93;;;19.10;99.90;;;;;;5069106;28;20040;-84
2023/06/25 04:44:45;;;;;;;18.13;15.18;;;19.10;99.90;;;;;;5071710;28;20537;-85
2023/06/25 04:47:10;;;;;;;18.52;15.15;;;19.20;99.90;;;;;;5072524;28;20157;-84
2023/06/25 04:49:36;;;;;;;18.10;15.00;;;19.20;99.90;;;;;;5072558;28;20036;-84
2023/06/25 04:52:01;;;;;;;17.55;14.68;;;19.20;99.90;;;;;;5072545;28;20516;-84
2023/06/25 04:54:27;;;;;;;17.60;15.00;;;19.30;99.90;;;;;;5055994;28;20414;-84
2023/06/25 04:56:53;;;;;;;17.40;15.35;;;19.30;99.90;;;;;;5072465;28;20032;-84
2023/06/25 04:59:18;;;;;;;18.13;15.82;;;19.30;99.90;;;;;;5072207;28;20032;-84
2023/06/25 05:01:44;;;;;;;18.98;16.30;;;19.30;99.90;;;;;;5071848;28;20429;-85
2023/06/25 05:04:09;;;;;;;18.27;15.95;;;19.40;99.90;;;;;;5072378;28;20102;-85
2023/06/25 05:06:35;;;;;;;18.38;15.82;;;19.40;99.90;;;;;;5072555;28;20043;-85
2023/06/25 05:09:00;;;;;;;17.48;15.57;;;19.50;99.90;;;;;;5072525;28;20052;-85
2023/06/25 05:11:26;;;;;;;17.90;15.77;;;19.50;99.90;;;;;;5054971;28;20106;-85
2023/06/25 05:13:51;;;;;;;17.33;15.48;;;19.50;99.90;;;;;;5072062;28;20040;-85
2023/06/25 05:16:17;;;;;;;19.33;16.33;;;19.60;99.90;;;;;;5071878;28;20037;-85
2023/06/25 05:18:43;;;;;;;17.15;15.35;;;19.60;99.90;;;;;;5055361;28;20072;-85
2023/06/25 05:21:09;;;;;;;19.20;16.23;;;19.70;99.90;;;;;;5071302;28;20731;-85
2023/06/25 05:23:44;;;;;;;17.83;15.23;;;19.70;99.90;;;;;;5071571;28;20055;-85
2023/06/25 05:26:10;;;;;;;18.58;15.95;;;19.70;99.90;;;;;;5071875;28;20067;-84
2023/06/25 05:28:36;;;;;;;20.30;16.98;;;19.80;99.90;;;;;;5072235;28;20555;-85
2023/06/25 05:31:01;;;;;;;18.58;15.45;;;19.90;99.90;;;;;;5071732;28;20037;-85
2023/06/25 05:33:27;;;;;;;18.73;16.65;;;19.90;99.90;;;;;;5055217;28;20036;-85
2023/06/25 05:35:52;;;;;;;18.85;16.33;;;20.00;99.90;;;;;;5070219;28;20127;-85
2023/06/25 05:38:18;;;;;;;19.95;17.05;;;20.00;99.90;;;;;;5071923;28;20047;-85
2023/06/25 05:40:44;;;;;;;19.10;17.00;;;20.00;99.90;;;;;;5071402;28;20079;-85
2023/06/25 05:43:09;;;;;;;19.05;17.05;;;20.10;99.90;;;;;;5054806;28;20400;-85
2023/06/25 05:45:35;;;;;;;20.40;17.13;;;20.10;99.90;;;;;;5054391;28;20470;-85
2023/06/25 05:48:00;;;;;;;20.17;16.92;;;20.20;99.90;;;;;;5070521;28;20131;-84
2023/06/25 05:50:26;;;;;;;18.67;16.70;;;20.20;99.90;;;;;;5071318;28;20044;-85
2023/06/25 05:52:51;;;;;;;18.98;16.38;;;20.30;99.90;;;;;;5071163;28;20040;-85
2023/06/25 05:55:17;;;;;;;19.98;17.10;;;20.30;99.90;;;;;;5070915;28;20636;-85
2023/06/25 05:57:43;;;;;;;19.63;17.52;;;20.40;99.90;;;;;;5071698;28;20127;-85
2023/06/25 06:00:09;;;;;;;19.20;17.20;;;20.50;99.90;;;;;;5070647;28;20494;-85
2023/06/25 06:02:34;;;;;;;19.10;16.73;;;20.50;99.90;;;;;;5070104;28;20409;-85
2023/06/25 06:05:00;;;;;;;18.52;16.52;;;20.60;99.90;;;;;;5071785;28;20040;-85
2023/06/25 06:07:26;;;;;;;19.95;17.65;;;20.70;99.90;;;;;;5071103;28;20041;-85
2023/06/25 06:09:51;;;;;;;21.35;17.50;;;20.70;99.90;;;;;;5070437;28;20127;-85
2023/06/25 06:12:17;;;;;;;19.75;17.65;;;20.80;99.90;;;;;;5070571;28;20036;-85
2023/06/25 06:14:43;;;;;;;20.02;18.02;;;20.90;99.90;;;;;;5053871;28;20119;-85
2023/06/25 06:17:09;;;;;;;18.92;16.92;;;20.90;99.90;;;;;;5070800;28;20032;-85
2023/06/25 06:19:35;;;;;;;21.45;17.63;;;21.00;99.90;;;;;;5053956;28;20048;-85
2023/06/25 06:22:01;;;;;;;20.13;17.50;;;21.10;99.90;;;;;;5071976;28;20428;-85
2023/06/25 06:24:27;;;;;;;19.85;17.45;;;21.10;99.90;;;;;;5070451;28;20127;-85
2023/06/25 06:26:52;;;;;;;20.83;18.63;;;21.20;99.90;;;;;;5054083;28;20044;-85
2023/06/25 06:29:19;;;;;;;20.63;18.50;;;21.30;99.90;;;;;;5070017;28;20044;-85
2023/06/25 06:31:45;;;;;;;19.90;17.83;;;21.30;99.90;;;;;;5052792;28;20047;-85
2023/06/25 06:34:10;;;;;;;21.23;18.17;;;21.40;99.90;;;;;;5070860;28;20044;-85
2023/06/25 06:36:36;;;;;;;20.27;18.17;;;21.50;99.90;;;;;;5070720;28;20036;-85
2023/06/25 06:39:02;;;;;;;22.27;18.73;;;21.50;99.90;;;;;;5070820;28;20459;-85
2023/06/25 06:41:28;;;;;;;19.65;17.63;;;21.60;99.90;;;;;;5070048;28;20044;-85
2023/06/25 06:43:53;;;;;;;20.27;18.15;;;21.70;99.90;;;;;;5053540;28;20379;-85
2023/06/25 06:46:19;;;;;;;20.88;18.15;;;21.80;99.90;;;;;;5053231;28;20048;-85
2023/06/25 06:48:45;;;;;;;21.83;19.63;;;21.90;99.90;;;;;;5069992;28;20045;-85
2023/06/25 06:51:10;;;;;;;20.52;18.48;;;21.90;99.90;;;;;;5053146;28;20040;-86
2023/06/25 06:53:36;;;;;;;20.17;18.17;;;22.00;99.90;;;;;;5070565;28;20037;-86
2023/06/25 06:56:01;;;;;;;20.25;18.05;;;22.10;99.90;;;;;;5070311;28;20056;-86
2023/06/25 06:58:27;;;;;;;20.30;18.27;;;22.20;99.90;;;;;;5070183;28;20512;-86
2023/06/25 07:00:53;;;;;;;20.98;18.70;;;22.20;99.90;;;;;;5068395;28;20064;-86
2023/06/25 07:03:18;;;;;;;19.40;17.58;;;22.30;99.90;;;;;;5069688;28;20128;-86
2023/06/25 07:05:44;;;;;;;19.40;17.42;;;22.40;99.90;;;;;;5052897;28;20481;-86
2023/06/25 07:08:09;;;;;;;19.17;17.35;;;22.40;99.90;;;;;;5070642;28;20072;-85
2023/06/25 07:10:35;;;;;;;19.63;17.70;;;22.50;99.90;;;;;;5070120;28;20086;-86
2023/06/25 07:13:01;;;;;;;19.83;17.83;;;22.60;99.90;;;;;;5069781;28;20530;-86
2023/06/25 07:15:26;;;;;;;19.10;17.10;;;22.60;99.90;;;;;;5070059;28;20401;-86
2023/06/25 07:17:52;;;;;;;19.05;17.05;;;22.70;99.90;;;;;;5069849;28;20119;-86
2023/06/25 07:20:18;;;;;;;19.75;17.75;;;22.80;99.90;;;;;;5069418;28;20449;-86
2023/06/25 07:22:44;;;;;;;17.65;15.75;;;22.80;99.90;;;;;;5069548;28;20032;-85
2023/06/25 07:25:10;;;;;;;18.45;16.55;;;22.90;99.90;;;;;;5069799;28;20669;-86
2023/06/25 07:27:36;;;;;;;22.17;17.13;;;22.90;99.90;;;;;;5070121;28;20048;-86
2023/06/25 07:30:03;;;;;;;17.38;15.55;;;23.00;99.90;;;;;;5069417;28;20121;-87
2023/06/25 07:32:29;;;;;;;17.75;15.95;;;23.10;99.90;;;;;;5050019;28;20044;-86
2023/06/25 07:34:56;;;;;;;18.23;16.33;;;23.20;99.90;;;;;;5068665;28;20064;-86
2023/06/25 07:37:22;;;;;;;18.52;16.70;;;23.20;99.90;;;;;;5068992;28;20041;-86
2023/06/25 07:39:48;;;;;;;18.90;16.85;;;23.30;99.90;;;;;;5069199;28;20040;-86
2023/06/25 07:42:14;;;;;;;17.27;14.93;;;23.40;99.90;;;;;;5052176;28;20150;-86
2023/06/25 07:44:39;;;;;;;17.35;15.55;;;23.40;99.90;;;;;;5068874;28;20056;-86
2023/06/25 07:47:05;;;;;;;17.13;15.32;;;23.50;99.90;;;;;;5070114;28;20072;-86
2023/06/25 07:49:30;;;;;;;16.55;14.75;;;23.60;99.90;;;;;;5068660;28;20246;-86
2023/06/25 07:51:56;;;;;;;18.35;13.93;;;23.60;99.90;;;;;;5069232;28;20072;-86
2023/06/25 07:54:22;;;;;;;16.58;13.57;;;23.70;99.90;;;;;;5053111;28;20037;-86
2023/06/25 07:56:48;;;;;;;18.38;14.50;;;23.80;99.90;;;;;;5069751;28;20036;-86
2023/06/25 07:59:14;;;;;;;15.25;13.65;;;23.80;99.90;;;;;;5051789;28;20560;-86
2023/06/25 08:01:41;;;;;;;14.98;13.25;;;23.90;99.90;;;;;;5068059;28;20076;-86
2023/06/25 08:04:06;;;;;;;16.23;12.98;;;24.00;99.90;;;;;;5068216;28;20047;-86
2023/06/25 08:06:33;;;;;;;12.95;11.02;;;24.10;99.90;;;;;;5068710;28;20036;-86
2023/06/25 08:08:58;;;;;;;16.35;10.82;;;24.10;99.90;;;;;;5068703;28;20055;-87
2023/06/25 08:11:24;;;;;;;14.32;11.05;;;24.20;99.90;;;;;;5068562;28;20028;-86
2023/06/25 08:13:50;;;;;;;13.13;9.63;;;24.30;99.90;;;;;;5068556;28;20559;-87
2023/06/25 08:16:15;;;;;;;12.35;9.45;;;24.40;99.90;;;;;;5068560;28;20406;-86
2023/06/25 08:18:41;;;;;;;13.52;9.50;;;24.40;99.00;;;;;;5069555;28;20036;-86
2023/06/25 08:21:07;;;;;;;13.88;9.50;;;24.50;96.80;;;;;;5071910;28;20482;-87
2023/06/25 08:23:33;;;;;;;14.48;12.93;;;24.50;97.60;;;;;;5072001;28;20123;-86
2023/06/25 08:25:58;;;;;;;15.18;11.77;;;24.60;98.30;;;;;;5072058;28;20115;-86
2023/06/25 08:28:24;;;;;;;12.27;10.05;;;24.70;99.50;;;;;;5072057;28;20094;-86
2023/06/25 08:30:49;;;;;;;12.35;9.80;;;24.70;99.90;;;;;;5072028;28;20041;-86
2023/06/25 08:33:15;;;;;;;12.73;9.50;;;24.80;99.90;;;;;;5072091;28;20040;-86
2023/06/25 08:35:41;;;;;;;13.00;10.07;;;24.90;97.70;;;;;;5071001;28;20036;-86
2023/06/25 08:38:06;;;;;;;12.30;10.40;;;25.00;95.40;;;;;;5071465;28;20402;-86
2023/06/25 08:40:34;;;;;;;12.32;8.88;;;25.00;94.20;;;;;;5072266;28;20119;-86
2023/06/25 08:43:00;;;;;;;12.07;8.50;;;25.00;93.40;;;;;;5055127;28;20029;-87
2023/06/25 08:45:26;;;;;;;11.57;8.27;;;25.10;92.40;;;;;;5071145;28;20166;-87
2023/06/25 08:47:56;;;;;;;10.23;7.45;;;25.20;91.10;;;;;;5071984;28;20044;-87
2023/06/25 08:50:22;;;;;;;10.50;7.60;;;25.30;89.80;;;;;;5071796;28;20421;-86
2023/06/25 08:52:47;;;;;;;10.43;7.72;;;25.30;90.60;;;;;;5072141;28;20045;-87
2023/06/25 08:55:14;;;;;;;9.88;6.90;;;25.40;89.40;;;;;;5072119;28;20036;-87
2023/06/25 08:57:40;;;;;;;10.70;5.80;;;25.50;88.30;;;;;;5071512;28;20123;-87
2023/06/25 09:00:07;;;;;;;8.80;6.90;;;25.50;83.00;;;;;;5071978;28;20173;-86
2023/06/25 09:02:33;;;;;;;10.98;6.80;;;25.60;83.50;;;;;;5071829;28;20125;-87
2023/06/25 09:05:06;;;;;;;10.07;6.00;;;25.70;81.20;;;;;;5070989;28;20520;-87
2023/06/25 09:07:43;;;;;;;10.88;7.10;;;25.80;81.20;;;;;;5071297;28;20528;-87
2023/06/25 09:10:09;;;;;;;10.20;6.65;;;25.80;81.90;;;;;;5050545;28;20068;-87
2023/06/25 09:12:34;;;;;;;9.35;5.72;;;25.90;81.00;;;;;;5073385;28;20130;-86
2023/06/25 09:15:00;;;;;;;14.52;6.60;;;26.00;79.60;;;;;;5055408;28;20111;-86
2023/06/25 09:17:25;;;;;;;10.68;6.88;;;26.00;76.80;;;;;;5055159;28;20040;-87
2023/06/25 09:19:51;;;;;;;11.00;6.15;;;26.10;77.40;;;;;;5055313;28;20436;-87
2023/06/25 09:22:17;;;;;;;11.88;6.40;;;26.20;77.40;;;;;;5055315;28;20493;-87
2023/06/25 09:24:44;;;;;;;10.77;6.57;;;26.20;76.30;;;;;;5071128;28;20036;-87
2023/06/25 09:27:10;;;;;;;10.27;6.05;;;26.30;76.50;;;;;;5071844;28;20067;-87
2023/06/25 09:29:37;;;;;;;10.02;5.90;;;26.40;76.10;;;;;;5054547;28;20068;-87
2023/06/25 09:32:09;;;;;;;8.52;5.20;;;26.40;76.00;;;;;;5054652;28;20047;-87
2023/06/25 09:34:36;;;;;;;9.23;5.63;;;26.50;75.10;;;;;;5071711;28;20127;-87
2023/06/25 09:37:03;;;;;;;10.52;5.90;;;26.60;73.70;;;;;;5071611;28;20391;-86
2023/06/25 09:39:30;;;;;;;8.63;5.25;;;26.60;72.30;;;;;;5071529;28;20059;-86
2023/06/25 09:41:56;;;;;;;11.43;5.78;;;26.60;72.30;;;;;;5071561;28;20131;-87
2023/06/25 09:44:22;;;;;;;9.50;5.65;;;26.70;69.60;;;;;;5071283;28;20044;-87
2023/06/25 09:46:52;;;;;;;10.55;5.72;;;26.70;69.80;;;;;;5055161;28;20402;-87
2023/06/25 09:49:19;;;;;;;10.43;5.47;;;26.80;68.30;;;;;;5054986;28;20036;-87
2023/06/25 09:52:00;;;;;;;9.07;5.20;;;26.90;68.30;;;;;;5053604;28;20123;-87
2023/06/25 09:54:26;;;;;;;12.95;6.40;;;26.90;69.20;;;;;;5054941;28;20033;-87
2023/06/25 09:56:55;;;;;;;10.95;6.13;;;26.90;67.70;;;;;;5071983;28;20040;-87
2023/06/25 09:59:21;;;;;;;10.98;5.90;;;27.00;67.40;;;;;;5054937;28;20043;-86
2023/06/25 10:01:46;;;;;;;9.15;5.63;;;27.00;68.70;;;;;;5054776;28;20049;-87
2023/06/25 10:04:12;;;;;;;11.90;6.28;;;27.10;68.90;;;;;;5071445;28;20093;-87
2023/06/25 10:06:38;;;;;;;10.23;5.82;;;27.20;68.30;;;;;;5055003;28;20049;-87
2023/06/25 10:09:05;;;;;;;9.80;5.38;;;27.30;67.60;;;;;;5055105;28;20044;-87
2023/06/25 10:11:31;;;;;;;9.48;5.78;;;27.30;70.20;;;;;;5053898;28;20037;-87
2023/06/25 10:13:58;;;;;;;9.63;6.10;;;27.50;69.20;;;;;;5070768;28;20037;-87
2023/06/25 10:16:29;;;;;;;9.77;5.55;;;27.60;66.90;;;;;;5071304;28;20178;-87
2023/06/25 10:18:56;;;;;;;10.70;5.82;;;27.60;68.10;;;;;;5043254;28;20444;-87
2023/06/25 10:21:23;;;;;;;9.73;5.65;;;27.70;67.20;;;;;;5071015;28;20280;-87
2023/06/25 10:24:00;;;;;;;10.18;5.65;;;27.70;67.40;;;;;;5070502;28;20041;-87
2023/06/25 10:26:35;;;;;;;10.38;6.15;;;27.80;68.20;;;;;;5070328;28;20040;-87
2023/06/25 10:29:06;;;;;;;10.63;6.13;;;27.90;66.00;;;;;;5070154;28;20052;-87
2023/06/25 10:31:39;;;;;;;9.27;5.88;;;27.90;64.40;;;;;;5052931;28;20048;-87
2023/06/25 10:34:06;;;;;;;11.25;5.68;;;27.90;64.70;;;;;;5053914;28;20048;-87
2023/06/25 10:36:32;;;;;;;9.15;5.00;;;27.90;65.20;;;;;;5071822;28;20044;-87
2023/06/25 10:38:58;;;;;;;9.15;5.05;;;28.00;65.70;;;;;;5070482;28;20098;-87
2023/06/25 10:41:28;;;;;;;8.90;4.93;;;28.10;63.30;;;;;;5070030;28;20048;-87
2023/06/25 10:43:54;;;;;;;9.02;4.43;;;28.20;64.80;;;;;;5070260;28;20445;-87
2023/06/25 10:46:27;;;;;;;8.43;5.20;;;28.30;65.70;;;;;;5070574;28;20036;-87
2023/06/25 10:48:53;;;;;;;7.97;4.65;;;28.40;64.80;;;;;;5053908;28;20082;-87
2023/06/25 10:51:19;;;;;;;9.82;4.93;;;28.40;64.80;;;;;;5069870;28;20464;-87
2023/06/25 10:53:45;;;;;;;9.43;5.00;;;28.50;64.10;;;;;;5070345;28;20039;-87
2023/06/25 10:56:11;;;;;;;9.35;4.97;;;28.60;63.00;;;;;;5070351;28;20127;-88
2023/06/25 10:58:41;;;;;;;9.10;5.10;;;28.60;62.40;;;;;;5070094;28;20047;-87
2023/06/25 11:01:07;;;;;;;8.77;4.60;;;28.70;63.30;;;;;;5069913;28;20044;-88
2023/06/25 11:03:36;;;;;;;8.30;5.38;;;28.80;63.10;;;;;;5070367;28;20077;-87
2023/06/25 11:06:01;;;;;;;8.25;4.72;;;28.80;61.60;;;;;;5070264;28;20048;-88
2023/06/25 11:08:27;;;;;;;9.18;4.88;;;28.90;61.40;;;;;;5053313;28;20043;-88
2023/06/25 11:10:53;;;;;;;9.38;5.50;;;28.80;61.20;;;;;;5052918;28;20098;-88
2023/06/25 11:13:19;;;;;;;8.52;4.40;;;28.90;61.60;;;;;;5071180;28;20398;-88
2023/06/25 11:15:44;;;;;;;8.80;4.63;;;28.90;60.70;;;;;;5070164;28;20033;-88
2023/06/25 11:18:10;;;;;;;7.35;4.55;;;29.00;61.90;;;;;;5053074;28;20082;-88
2023/06/25 11:20:40;;;;;;;7.88;4.90;;;29.00;61.40;;;;;;5069632;28;20124;-88
2023/06/25 11:23:10;;;;;;;11.20;4.65;;;29.10;61.40;;;;;;5070749;28;20467;-88
2023/06/25 11:25:36;;;;;;;9.75;4.85;;;29.10;61.30;;;;;;5069876;28;20047;-87
2023/06/25 11:28:04;;;;;;;9.15;5.10;;;29.10;60.90;;;;;;5053378;28;20131;-88
2023/06/25 11:30:30;;;;;;;8.35;5.05;;;29.10;60.60;;;;;;5069401;28;20045;-88
2023/06/25 11:33:13;;;;;;;8.60;4.68;;;29.20;60.90;;;;;;5069152;28;20397;-88
2023/06/25 11:35:39;;;;;;;8.52;4.90;;;29.20;61.10;;;;;;5049818;28;20087;-88
2023/06/25 11:38:05;;;;;;;8.98;5.40;;;29.30;60.50;;;;;;5049570;28;20098;-88
2023/06/25 11:40:33;;;;;;;8.23;5.18;;;29.30;61.70;;;;;;5049326;28;20037;-88
2023/06/25 11:42:58;;;;;;;8.88;5.15;;;29.40;62.70;;;;;;5048677;28;20037;-88
2023/06/25 11:45:24;;;;;;;8.90;5.38;;;29.50;61.40;;;;;;5032238;28;20033;-88
2023/06/25 11:47:53;;;;;;;9.40;5.63;;;29.60;61.80;;;;;;5030874;28;20033;-88
2023/06/25 11:50:26;;;;;;;10.00;6.15;;;29.60;61.50;;;;;;5048811;28;20514;-87
2023/06/25 11:52:53;;;;;;;8.68;5.05;;;29.60;60.60;;;;;;5049102;28;20041;-88
2023/06/25 11:55:20;;;;;;;8.50;4.93;;;29.60;61.40;;;;;;5052990;28;20494;-88
2023/06/25 11:57:46;;;;;;;10.27;5.80;;;29.70;63.10;;;;;;5053239;28;20090;-87
2023/06/25 12:00:13;;;;;;;9.43;5.03;;;29.80;61.40;;;;;;5053336;28;20037;-87
2023/06/25 12:02:38;;;;;;;7.78;4.68;;;29.80;60.00;;;;;;5053430;28;20041;-88
2023/06/25 12:05:04;;;;;;;8.75;4.50;;;29.90;59.30;;;;;;5037687;28;20040;-88
2023/06/25 12:07:30;;;;;;;8.00;4.70;;;29.90;60.30;;;;;;5053773;28;20512;-88
2023/06/25 12:09:56;;;;;;;8.68;4.75;;;29.90;58.60;;;;;;5057469;28;20063;-88
2023/06/25 12:12:21;;;;;;;9.27;4.85;;;30.00;59.30;;;;;;5072457;28;20494;-88
2023/06/25 12:14:47;;;;;;;8.90;4.93;;;30.00;58.20;;;;;;5073231;28;20037;-87
2023/06/25 12:17:14;;;;;;;8.00;4.07;;;30.10;57.80;;;;;;5056880;28;20043;-88
2023/06/25 12:19:41;;;;;;;10.25;5.25;;;30.10;58.20;;;;;;5072988;28;20112;-88
2023/06/25 12:22:06;;;;;;;9.80;5.43;;;30.10;57.70;;;;;;5054557;28;20037;-88
2023/06/25 12:24:32;;;;;;;9.10;5.15;;;30.20;59.60;;;;;;5073187;28;20101;-88
2023/06/25 12:26:57;;;;;;;9.02;4.90;;;30.30;60.60;;;;;;5073077;28;20083;-88
2023/06/25 12:29:23;;;;;;;8.63;4.57;;;30.50;59.50;;;;;;5053865;28;20041;-88